sensor_id;sensor_type;location;lat;lon;timestamp;P1;durP1;ratioP1;P2;durP2;ratioP2
44358;SDS011;30077;52.474;13.326;2023-04-21T00:03:01;19.63;;;10.45;;
44358;SDS011;30077;52.474;13.326;2023-04-21T00:08:02;24.05;;;10.50;;
44358;SDS011;30077;52.474;13.326;2023-04-21T00:13:03;23.00;;;10.90;;
44358;SDS011;30077;52.474;13.326;2023-04-21T00:18:03;25.85;;;10.73;;
44358;SDS011;30077;52.474;13.326;2023-04-21T00:23:05;22.48;;;11.23;;
44358;SDS011;30077;52.474;13.326;2023-04-21T00:28:06;26.55;;;11.38;;
44358;SDS011;30077;52.474;13.326;2023-04-21T00:33:07;20.65;;;11.20;;
44358;SDS011;30077;52.474;13.326;2023-04-21T00:38:07;20.98;;;10.25;;
44358;SDS011;30077;52.474;13.326;2023-04-21T00:43:08;23.50;;;11.23;;
44358;SDS011;30077;52.474;13.326;2023-04-21T00:48:09;25.00;;;11.25;;
44358;SDS011;30077;52.474;13.326;2023-04-21T00:53:10;23.73;;;11.20;;
44358;SDS011;30077;52.474;13.326;2023-04-21T00:58:13;24.25;;;12.52;;
44358;SDS011;30077;52.474;13.326;2023-04-21T01:03:14;27.45;;;12.18;;
44358;SDS011;30077;52.474;13.326;2023-04-21T01:08:15;22.13;;;11.75;;
44358;SDS011;30077;52.474;13.326;2023-04-21T01:13:18;23.95;;;12.13;;
44358;SDS011;30077;52.474;13.326;2023-04-21T01:18:21;28.17;;;12.98;;
44358;SDS011;30077;52.474;13.326;2023-04-21T01:23:21;23.20;;;13.57;;
44358;SDS011;30077;52.474;13.326;2023-04-21T01:28:22;19.52;;;11.88;;
44358;SDS011;30077;52.474;13.326;2023-04-21T01:33:24;27.33;;;13.27;;
44358;SDS011;30077;52.474;13.326;2023-04-21T01:38:25;24.75;;;13.07;;
44358;SDS011;30077;52.474;13.326;2023-04-21T01:43:27;28.05;;;13.68;;
44358;SDS011;30077;52.474;13.326;2023-04-21T01:48:27;22.42;;;14.48;;
44358;SDS011;30077;52.474;13.326;2023-04-21T01:53:28;30.27;;;14.25;;
44358;SDS011;30077;52.474;13.326;2023-04-21T01:58:29;23.55;;;14.88;;
44358;SDS011;30077;52.474;13.326;2023-04-21T02:03:30;25.33;;;14.50;;
44358;SDS011;30077;52.474;13.326;2023-04-21T02:08:31;23.25;;;14.27;;
44358;SDS011;30077;52.474;13.326;2023-04-21T02:13:31;31.42;;;16.85;;
44358;SDS011;30077;52.474;13.326;2023-04-21T02:18:32;35.00;;;19.27;;
44358;SDS011;30077;52.474;13.326;2023-04-21T02:23:33;36.22;;;19.23;;
44358;SDS011;30077;52.474;13.326;2023-04-21T02:28:34;33.13;;;18.65;;
44358;SDS011;30077;52.474;13.326;2023-04-21T02:33:34;28.17;;;16.65;;
44358;SDS011;30077;52.474;13.326;2023-04-21T02:38:35;29.88;;;16.98;;
44358;SDS011;30077;52.474;13.326;2023-04-21T02:43:36;30.80;;;16.17;;
44358;SDS011;30077;52.474;13.326;2023-04-21T02:48:36;24.08;;;14.27;;
44358;SDS011;30077;52.474;13.326;2023-04-21T02:53:37;26.80;;;14.73;;
44358;SDS011;30077;52.474;13.326;2023-04-21T02:58:39;24.07;;;14.43;;
44358;SDS011;30077;52.474;13.326;2023-04-21T03:03:40;29.20;;;15.60;;
44358;SDS011;30077;52.474;13.326;2023-04-21T03:08:40;26.95;;;15.52;;
44358;SDS011;30077;52.474;13.326;2023-04-21T03:13:41;28.48;;;15.13;;
44358;SDS011;30077;52.474;13.326;2023-04-21T03:18:42;21.13;;;14.95;;
44358;SDS011;30077;52.474;13.326;2023-04-21T03:23:42;21.40;;;14.52;;
44358;SDS011;30077;52.474;13.326;2023-04-21T03:28:43;24.95;;;15.35;;
44358;SDS011;30077;52.474;13.326;2023-04-21T03:33:45;26.43;;;14.37;;
44358;SDS011;30077;52.474;13.326;2023-04-21T03:38:46;27.52;;;16.05;;
44358;SDS011;30077;52.474;13.326;2023-04-21T03:43:48;28.10;;;16.05;;
44358;SDS011;30077;52.474;13.326;2023-04-21T03:48:51;26.80;;;15.02;;
44358;SDS011;30077;52.474;13.326;2023-04-21T03:53:51;22.95;;;15.55;;
44358;SDS011;30077;52.474;13.326;2023-04-21T03:58:52;23.30;;;15.85;;
44358;SDS011;30077;52.474;13.326;2023-04-21T04:03:53;28.77;;;18.02;;
44358;SDS011;30077;52.474;13.326;2023-04-21T04:08:53;23.83;;;15.52;;
44358;SDS011;30077;52.474;13.326;2023-04-21T04:13:54;24.15;;;16.17;;
44358;SDS011;30077;52.474;13.326;2023-04-21T04:18:55;27.80;;;16.20;;
44358;SDS011;30077;52.474;13.326;2023-04-21T04:23:56;27.40;;;15.82;;
44358;SDS011;30077;52.474;13.326;2023-04-21T04:28:58;23.65;;;16.95;;
44358;SDS011;30077;52.474;13.326;2023-04-21T04:34:01;29.75;;;16.80;;
44358;SDS011;30077;52.474;13.326;2023-04-21T04:39:02;28.25;;;17.35;;
44358;SDS011;30077;52.474;13.326;2023-04-21T04:44:03;29.65;;;15.82;;
44358;SDS011;30077;52.474;13.326;2023-04-21T04:49:04;30.88;;;17.05;;
44358;SDS011;30077;52.474;13.326;2023-04-21T04:54:05;25.90;;;16.58;;
44358;SDS011;30077;52.474;13.326;2023-04-21T04:59:05;29.60;;;17.70;;
44358;SDS011;30077;52.474;13.326;2023-04-21T05:04:07;27.90;;;16.40;;
44358;SDS011;30077;52.474;13.326;2023-04-21T05:09:07;26.17;;;16.83;;
44358;SDS011;30077;52.474;13.326;2023-04-21T05:14:09;25.25;;;16.70;;
44358;SDS011;30077;52.474;13.326;2023-04-21T05:19:09;23.98;;;16.30;;
44358;SDS011;30077;52.474;13.326;2023-04-21T05:24:10;28.60;;;16.10;;
44358;SDS011;30077;52.474;13.326;2023-04-21T05:29:12;25.77;;;16.52;;
44358;SDS011;30077;52.474;13.326;2023-04-21T05:34:14;27.10;;;16.67;;
44358;SDS011;30077;52.474;13.326;2023-04-21T05:39:15;26.23;;;16.83;;
44358;SDS011;30077;52.474;13.326;2023-04-21T05:44:16;26.50;;;18.02;;
44358;SDS011;30077;52.474;13.326;2023-04-21T05:49:19;38.13;;;18.13;;
44358;SDS011;30077;52.474;13.326;2023-04-21T05:54:19;26.70;;;16.92;;
44358;SDS011;30077;52.474;13.326;2023-04-21T05:59:20;29.38;;;15.80;;
44358;SDS011;30077;52.474;13.326;2023-04-21T06:04:21;26.08;;;17.00;;
44358;SDS011;30077;52.474;13.326;2023-04-21T06:09:21;24.60;;;15.73;;
44358;SDS011;30077;52.474;13.326;2023-04-21T06:14:22;26.33;;;16.33;;
44358;SDS011;30077;52.474;13.326;2023-04-21T06:19:23;24.90;;;16.92;;
44358;SDS011;30077;52.474;13.326;2023-04-21T06:24:24;28.25;;;17.40;;
44358;SDS011;30077;52.474;13.326;2023-04-21T06:29:25;26.42;;;17.35;;
44358;SDS011;30077;52.474;13.326;2023-04-21T06:34:25;25.50;;;16.33;;
44358;SDS011;30077;52.474;13.326;2023-04-21T06:39:26;22.67;;;15.70;;
44358;SDS011;30077;52.474;13.326;2023-04-21T06:44:28;23.30;;;16.10;;
44358;SDS011;30077;52.474;13.326;2023-04-21T06:49:29;21.85;;;16.30;;
44358;SDS011;30077;52.474;13.326;2023-04-21T06:54:29;27.80;;;16.75;;
44358;SDS011;30077;52.474;13.326;2023-04-21T06:59:30;24.52;;;15.65;;
44358;SDS011;30077;52.474;13.326;2023-04-21T07:04:31;25.00;;;17.08;;
44358;SDS011;30077;52.474;13.326;2023-04-21T07:09:32;25.73;;;15.32;;
44358;SDS011;30077;52.474;13.326;2023-04-21T07:14:33;22.70;;;15.30;;
44358;SDS011;30077;52.474;13.326;2023-04-21T07:19:33;28.30;;;17.17;;
44358;SDS011;30077;52.474;13.326;2023-04-21T07:24:35;29.52;;;16.40;;
44358;SDS011;30077;52.474;13.326;2023-04-21T07:29:36;22.77;;;16.10;;
44358;SDS011;30077;52.474;13.326;2023-04-21T07:34:37;22.58;;;15.07;;
44358;SDS011;30077;52.474;13.326;2023-04-21T07:39:38;24.35;;;15.65;;
44358;SDS011;30077;52.474;13.326;2023-04-21T07:44:38;29.08;;;15.77;;
44358;SDS011;30077;52.474;13.326;2023-04-21T07:49:39;18.98;;;15.05;;
44358;SDS011;30077;52.474;13.326;2023-04-21T07:54:40;22.58;;;15.48;;
44358;SDS011;30077;52.474;13.326;2023-04-21T07:59:40;25.88;;;14.77;;
44358;SDS011;30077;52.474;13.326;2023-04-21T08:04:41;25.08;;;15.93;;
44358;SDS011;30077;52.474;13.326;2023-04-21T08:09:42;25.15;;;14.65;;
44358;SDS011;30077;52.474;13.326;2023-04-21T08:14:42;25.60;;;15.75;;
44358;SDS011;30077;52.474;13.326;2023-04-21T08:19:43;25.70;;;14.18;;
44358;SDS011;30077;52.474;13.326;2023-04-21T08:24:44;24.90;;;15.15;;
44358;SDS011;30077;52.474;13.326;2023-04-21T08:29:45;21.10;;;15.25;;
44358;SDS011;30077;52.474;13.326;2023-04-21T08:34:46;22.38;;;13.50;;
44358;SDS011;30077;52.474;13.326;2023-04-21T08:39:48;21.07;;;13.93;;
44358;SDS011;30077;52.474;13.326;2023-04-21T08:44:53;17.65;;;13.55;;
44358;SDS011;30077;52.474;13.326;2023-04-21T08:49:54;24.20;;;13.85;;
44358;SDS011;30077;52.474;13.326;2023-04-21T08:54:56;20.80;;;13.48;;
44358;SDS011;30077;52.474;13.326;2023-04-21T08:59:57;20.00;;;13.52;;
44358;SDS011;30077;52.474;13.326;2023-04-21T09:04:58;22.10;;;13.25;;
44358;SDS011;30077;52.474;13.326;2023-04-21T09:09:59;19.33;;;13.85;;
44358;SDS011;30077;52.474;13.326;2023-04-21T09:15:03;24.95;;;14.65;;
44358;SDS011;30077;52.474;13.326;2023-04-21T09:20:15;19.98;;;13.18;;
44358;SDS011;30077;52.474;13.326;2023-04-21T09:25:19;22.77;;;13.68;;
44358;SDS011;30077;52.474;13.326;2023-04-21T09:30:20;19.90;;;13.57;;
44358;SDS011;30077;52.474;13.326;2023-04-21T09:35:21;19.63;;;13.27;;
44358;SDS011;30077;52.474;13.326;2023-04-21T09:40:22;20.15;;;13.23;;
44358;SDS011;30077;52.474;13.326;2023-04-21T09:45:24;26.90;;;13.43;;
44358;SDS011;30077;52.474;13.326;2023-04-21T09:50:27;18.27;;;13.48;;
44358;SDS011;30077;52.474;13.326;2023-04-21T09:55:28;19.20;;;11.93;;
44358;SDS011;30077;52.474;13.326;2023-04-21T10:00:30;22.00;;;12.45;;
44358;SDS011;30077;52.474;13.326;2023-04-21T10:05:31;16.05;;;12.32;;
44358;SDS011;30077;52.474;13.326;2023-04-21T10:10:32;17.88;;;11.77;;
44358;SDS011;30077;52.474;13.326;2023-04-21T10:15:38;18.77;;;12.32;;
44358;SDS011;30077;52.474;13.326;2023-04-21T10:20:50;18.52;;;11.88;;
44358;SDS011;30077;52.474;13.326;2023-04-21T10:26:01;16.02;;;12.00;;
44358;SDS011;30077;52.474;13.326;2023-04-21T10:36:23;18.58;;;11.30;;
44358;SDS011;30077;52.474;13.326;2023-04-21T10:41:28;14.60;;;10.65;;
44358;SDS011;30077;52.474;13.326;2023-04-21T10:46:31;14.52;;;11.25;;
44358;SDS011;30077;52.474;13.326;2023-04-21T10:56:59;16.73;;;11.43;;
44358;SDS011;30077;52.474;13.326;2023-04-21T11:02:07;15.98;;;10.25;;
44358;SDS011;30077;52.474;13.326;2023-04-21T11:07:11;15.18;;;10.13;;
44358;SDS011;30077;52.474;13.326;2023-04-21T11:12:20;15.00;;;10.45;;
44358;SDS011;30077;52.474;13.326;2023-04-21T11:17:20;15.00;;;10.70;;
44358;SDS011;30077;52.474;13.326;2023-04-21T11:22:23;16.77;;;11.15;;
44358;SDS011;30077;52.474;13.326;2023-04-21T11:27:26;18.13;;;11.40;;
44358;SDS011;30077;52.474;13.326;2023-04-21T11:32:28;14.05;;;10.25;;
44358;SDS011;30077;52.474;13.326;2023-04-21T11:37:30;17.92;;;10.68;;
44358;SDS011;30077;52.474;13.326;2023-04-21T11:42:30;15.20;;;10.98;;
44358;SDS011;30077;52.474;13.326;2023-04-21T11:47:32;14.10;;;10.67;;
44358;SDS011;30077;52.474;13.326;2023-04-21T11:52:33;15.60;;;10.52;;
44358;SDS011;30077;52.474;13.326;2023-04-21T11:57:40;13.82;;;10.45;;
44358;SDS011;30077;52.474;13.326;2023-04-21T12:02:41;17.15;;;10.02;;
44358;SDS011;30077;52.474;13.326;2023-04-21T12:07:43;15.40;;;9.60;;
44358;SDS011;30077;52.474;13.326;2023-04-21T12:12:46;13.95;;;10.10;;
44358;SDS011;30077;52.474;13.326;2023-04-21T12:17:48;12.40;;;10.50;;
44358;SDS011;30077;52.474;13.326;2023-04-21T12:22:51;13.77;;;9.63;;
44358;SDS011;30077;52.474;13.326;2023-04-21T12:27:57;13.55;;;10.43;;
44358;SDS011;30077;52.474;13.326;2023-04-21T12:32:58;15.15;;;10.10;;
44358;SDS011;30077;52.474;13.326;2023-04-21T12:37:59;15.45;;;9.98;;
44358;SDS011;30077;52.474;13.326;2023-04-21T12:42:59;14.40;;;10.48;;
44358;SDS011;30077;52.474;13.326;2023-04-21T12:48:00;16.42;;;9.80;;
44358;SDS011;30077;52.474;13.326;2023-04-21T12:53:02;15.25;;;10.40;;
44358;SDS011;30077;52.474;13.326;2023-04-21T12:58:03;15.02;;;9.82;;
44358;SDS011;30077;52.474;13.326;2023-04-21T13:03:04;17.17;;;9.15;;
44358;SDS011;30077;52.474;13.326;2023-04-21T13:08:04;15.32;;;9.27;;
44358;SDS011;30077;52.474;13.326;2023-04-21T13:13:05;12.15;;;8.95;;
44358;SDS011;30077;52.474;13.326;2023-04-21T13:18:06;13.70;;;8.52;;
44358;SDS011;30077;52.474;13.326;2023-04-21T13:23:06;13.85;;;8.82;;
44358;SDS011;30077;52.474;13.326;2023-04-21T13:28:07;11.10;;;7.93;;
44358;SDS011;30077;52.474;13.326;2023-04-21T13:33:08;9.80;;;8.80;;
44358;SDS011;30077;52.474;13.326;2023-04-21T13:38:10;12.27;;;8.82;;
44358;SDS011;30077;52.474;13.326;2023-04-21T13:43:11;16.17;;;8.77;;
44358;SDS011;30077;52.474;13.326;2023-04-21T13:48:11;15.25;;;8.38;;
44358;SDS011;30077;52.474;13.326;2023-04-21T13:53:12;11.32;;;8.60;;
44358;SDS011;30077;52.474;13.326;2023-04-21T13:58:15;10.65;;;7.70;;
44358;SDS011;30077;52.474;13.326;2023-04-21T14:03:18;11.73;;;8.65;;
44358;SDS011;30077;52.474;13.326;2023-04-21T14:08:18;11.23;;;8.63;;
44358;SDS011;30077;52.474;13.326;2023-04-21T14:13:19;14.02;;;8.60;;
44358;SDS011;30077;52.474;13.326;2023-04-21T14:18:20;16.98;;;9.07;;
44358;SDS011;30077;52.474;13.326;2023-04-21T14:23:21;12.38;;;8.65;;
44358;SDS011;30077;52.474;13.326;2023-04-21T14:28:21;13.02;;;9.20;;
44358;SDS011;30077;52.474;13.326;2023-04-21T14:33:22;14.10;;;8.45;;
44358;SDS011;30077;52.474;13.326;2023-04-21T14:38:23;10.73;;;7.78;;
44358;SDS011;30077;52.474;13.326;2023-04-21T14:43:24;12.73;;;8.50;;
44358;SDS011;30077;52.474;13.326;2023-04-21T14:48:25;10.98;;;8.30;;
44358;SDS011;30077;52.474;13.326;2023-04-21T14:53:26;12.07;;;8.40;;
44358;SDS011;30077;52.474;13.326;2023-04-21T14:58:27;10.32;;;8.60;;
44358;SDS011;30077;52.474;13.326;2023-04-21T15:03:27;12.43;;;8.45;;
44358;SDS011;30077;52.474;13.326;2023-04-21T15:08:28;11.80;;;7.70;;
44358;SDS011;30077;52.474;13.326;2023-04-21T15:13:29;12.57;;;7.57;;
44358;SDS011;30077;52.474;13.326;2023-04-21T15:18:31;11.53;;;7.93;;
44358;SDS011;30077;52.474;13.326;2023-04-21T15:23:32;12.38;;;7.97;;
44358;SDS011;30077;52.474;13.326;2023-04-21T15:28:34;11.88;;;8.32;;
44358;SDS011;30077;52.474;13.326;2023-04-21T15:33:35;12.32;;;8.27;;
44358;SDS011;30077;52.474;13.326;2023-04-21T15:38:36;10.82;;;8.48;;
44358;SDS011;30077;52.474;13.326;2023-04-21T15:43:36;11.38;;;7.88;;
44358;SDS011;30077;52.474;13.326;2023-04-21T15:48:40;14.70;;;8.30;;
44358;SDS011;30077;52.474;13.326;2023-04-21T15:53:41;11.40;;;8.43;;
44358;SDS011;30077;52.474;13.326;2023-04-21T15:58:46;14.80;;;7.75;;
44358;SDS011;30077;52.474;13.326;2023-04-21T16:03:47;8.32;;;7.28;;
44358;SDS011;30077;52.474;13.326;2023-04-21T16:08:48;10.40;;;7.90;;
44358;SDS011;30077;52.474;13.326;2023-04-21T16:13:49;13.00;;;8.30;;
44358;SDS011;30077;52.474;13.326;2023-04-21T16:18:50;14.07;;;8.35;;
44358;SDS011;30077;52.474;13.326;2023-04-21T16:23:51;14.75;;;8.18;;
44358;SDS011;30077;52.474;13.326;2023-04-21T16:28:52;11.30;;;7.63;;
44358;SDS011;30077;52.474;13.326;2023-04-21T16:33:54;10.73;;;8.48;;
44358;SDS011;30077;52.474;13.326;2023-04-21T16:38:58;14.05;;;8.52;;
44358;SDS011;30077;52.474;13.326;2023-04-21T16:43:59;16.80;;;9.52;;
44358;SDS011;30077;52.474;13.326;2023-04-21T16:49:00;10.60;;;7.18;;
44358;SDS011;30077;52.474;13.326;2023-04-21T16:54:01;9.52;;;7.45;;
44358;SDS011;30077;52.474;13.326;2023-04-21T16:59:01;13.90;;;7.70;;
44358;SDS011;30077;52.474;13.326;2023-04-21T17:04:02;14.00;;;8.20;;
44358;SDS011;30077;52.474;13.326;2023-04-21T17:09:03;10.07;;;6.93;;
44358;SDS011;30077;52.474;13.326;2023-04-21T17:14:04;11.63;;;7.35;;
44358;SDS011;30077;52.474;13.326;2023-04-21T17:19:05;16.67;;;7.35;;
44358;SDS011;30077;52.474;13.326;2023-04-21T17:24:05;13.88;;;7.82;;
44358;SDS011;30077;52.474;13.326;2023-04-21T17:29:06;12.15;;;7.07;;
44358;SDS011;30077;52.474;13.326;2023-04-21T17:34:07;9.68;;;6.72;;
44358;SDS011;30077;52.474;13.326;2023-04-21T17:39:08;11.95;;;8.00;;
44358;SDS011;30077;52.474;13.326;2023-04-21T17:44:09;9.48;;;7.03;;
44358;SDS011;30077;52.474;13.326;2023-04-21T17:49:10;10.38;;;6.85;;
44358;SDS011;30077;52.474;13.326;2023-04-21T17:54:10;10.00;;;7.50;;
44358;SDS011;30077;52.474;13.326;2023-04-21T17:59:11;13.45;;;6.70;;
44358;SDS011;30077;52.474;13.326;2023-04-21T18:04:12;10.90;;;7.45;;
44358;SDS011;30077;52.474;13.326;2023-04-21T18:09:15;17.48;;;8.85;;
44358;SDS011;30077;52.474;13.326;2023-04-21T18:14:17;11.55;;;8.07;;
44358;SDS011;30077;52.474;13.326;2023-04-21T18:19:18;10.40;;;7.43;;
44358;SDS011;30077;52.474;13.326;2023-04-21T18:24:19;13.73;;;8.60;;
44358;SDS011;30077;52.474;13.326;2023-04-21T18:29:20;15.60;;;7.70;;
44358;SDS011;30077;52.474;13.326;2023-04-21T18:34:20;12.57;;;8.55;;
44358;SDS011;30077;52.474;13.326;2023-04-21T18:39:21;11.93;;;7.55;;
44358;SDS011;30077;52.474;13.326;2023-04-21T18:44:26;15.88;;;8.88;;
44358;SDS011;30077;52.474;13.326;2023-04-21T18:49:27;12.23;;;8.50;;
44358;SDS011;30077;52.474;13.326;2023-04-21T18:54:28;14.20;;;8.70;;
44358;SDS011;30077;52.474;13.326;2023-04-21T18:59:29;13.25;;;8.40;;
44358;SDS011;30077;52.474;13.326;2023-04-21T19:04:30;11.17;;;7.90;;
44358;SDS011;30077;52.474;13.326;2023-04-21T19:09:31;13.00;;;8.05;;
44358;SDS011;30077;52.474;13.326;2023-04-21T19:14:32;10.27;;;7.28;;
44358;SDS011;30077;52.474;13.326;2023-04-21T19:19:33;13.43;;;7.60;;
44358;SDS011;30077;52.474;13.326;2023-04-21T19:24:34;12.55;;;8.23;;
44358;SDS011;30077;52.474;13.326;2023-04-21T19:29:34;11.73;;;7.78;;
44358;SDS011;30077;52.474;13.326;2023-04-21T19:34:35;14.80;;;7.90;;
44358;SDS011;30077;52.474;13.326;2023-04-21T19:39:36;10.52;;;6.75;;
44358;SDS011;30077;52.474;13.326;2023-04-21T19:44:37;10.95;;;7.57;;
44358;SDS011;30077;52.474;13.326;2023-04-21T19:49:39;11.35;;;7.70;;
44358;SDS011;30077;52.474;13.326;2023-04-21T19:54:39;11.40;;;7.47;;
44358;SDS011;30077;52.474;13.326;2023-04-21T19:59:40;11.05;;;7.63;;
44358;SDS011;30077;52.474;13.326;2023-04-21T20:04:41;10.30;;;7.72;;
44358;SDS011;30077;52.474;13.326;2023-04-21T20:09:41;10.55;;;7.85;;
44358;SDS011;30077;52.474;13.326;2023-04-21T20:14:42;12.20;;;8.30;;
44358;SDS011;30077;52.474;13.326;2023-04-21T20:19:43;13.88;;;8.40;;
44358;SDS011;30077;52.474;13.326;2023-04-21T20:29:46;12.65;;;8.32;;
44358;SDS011;30077;52.474;13.326;2023-04-21T20:34:47;11.10;;;8.05;;
44358;SDS011;30077;52.474;13.326;2023-04-21T20:39:48;11.38;;;7.78;;
44358;SDS011;30077;52.474;13.326;2023-04-21T20:44:49;18.43;;;11.37;;
44358;SDS011;30077;52.474;13.326;2023-04-21T20:49:50;14.82;;;8.35;;
44358;SDS011;30077;52.474;13.326;2023-04-21T20:54:51;17.10;;;8.75;;
44358;SDS011;30077;52.474;13.326;2023-04-21T20:59:51;12.90;;;8.13;;
44358;SDS011;30077;52.474;13.326;2023-04-21T21:04:52;9.13;;;7.68;;
44358;SDS011;30077;52.474;13.326;2023-04-21T21:09:53;10.88;;;7.88;;
44358;SDS011;30077;52.474;13.326;2023-04-21T21:14:55;13.77;;;8.15;;
44358;SDS011;30077;52.474;13.326;2023-04-21T21:19:56;10.77;;;7.88;;
44358;SDS011;30077;52.474;13.326;2023-04-21T21:24:57;11.38;;;7.57;;
44358;SDS011;30077;52.474;13.326;2023-04-21T21:29:58;13.60;;;8.30;;
44358;SDS011;30077;52.474;13.326;2023-04-21T21:34:59;13.60;;;8.35;;
44358;SDS011;30077;52.474;13.326;2023-04-21T21:40:00;13.73;;;8.23;;
44358;SDS011;30077;52.474;13.326;2023-04-21T21:50:03;14.38;;;8.88;;
44358;SDS011;30077;52.474;13.326;2023-04-21T21:55:05;14.43;;;8.15;;
44358;SDS011;30077;52.474;13.326;2023-04-21T22:00:06;19.77;;;8.75;;
44358;SDS011;30077;52.474;13.326;2023-04-21T22:05:11;14.65;;;9.18;;
44358;SDS011;30077;52.474;13.326;2023-04-21T22:10:12;12.38;;;9.20;;
44358;SDS011;30077;52.474;13.326;2023-04-21T22:15:13;16.27;;;9.30;;
44358;SDS011;30077;52.474;13.326;2023-04-21T22:20:15;12.60;;;8.33;;
44358;SDS011;30077;52.474;13.326;2023-04-21T22:25:16;16.25;;;9.90;;
44358;SDS011;30077;52.474;13.326;2023-04-21T22:30:17;14.25;;;8.77;;
44358;SDS011;30077;52.474;13.326;2023-04-21T22:35:18;13.32;;;8.90;;
44358;SDS011;30077;52.474;13.326;2023-04-21T22:40:19;16.73;;;9.07;;
44358;SDS011;30077;52.474;13.326;2023-04-21T22:45:20;12.90;;;9.43;;
44358;SDS011;30077;52.474;13.326;2023-04-21T22:50:21;13.13;;;9.02;;
44358;SDS011;30077;52.474;13.326;2023-04-21T22:55:21;14.63;;;10.02;;
44358;SDS011;30077;52.474;13.326;2023-04-21T23:00:22;17.10;;;9.48;;
44358;SDS011;30077;52.474;13.326;2023-04-21T23:05:23;13.90;;;9.43;;
44358;SDS011;30077;52.474;13.326;2023-04-21T23:10:24;12.35;;;9.52;;
44358;SDS011;30077;52.474;13.326;2023-04-21T23:15:24;15.48;;;10.15;;
44358;SDS011;30077;52.474;13.326;2023-04-21T23:20:26;21.20;;;10.13;;
44358;SDS011;30077;52.474;13.326;2023-04-21T23:25:27;14.43;;;9.13;;
44358;SDS011;30077;52.474;13.326;2023-04-21T23:30:27;18.30;;;10.00;;
44358;SDS011;30077;52.474;13.326;2023-04-21T23:35:28;18.08;;;9.85;;
44358;SDS011;30077;52.474;13.326;2023-04-21T23:40:29;17.58;;;9.82;;
44358;SDS011;30077;52.474;13.326;2023-04-21T23:45:30;12.60;;;9.35;;
44358;SDS011;30077;52.474;13.326;2023-04-21T23:50:30;12.82;;;9.10;;
44358;SDS011;30077;52.474;13.326;2023-04-21T23:55:31;16.75;;;9.40;;
